createdAt,value
2019-05-12T00:00:52.981Z,986.5
2019-05-12T00:01:54.261Z,986.5
2019-05-12T00:02:55.561Z,986.6
2019-05-12T00:04:01.775Z,986.7
2019-05-12T00:05:03.055Z,986.7
2019-05-12T00:06:04.299Z,986.7
2019-05-12T00:07:05.532Z,986.7
2019-05-12T00:08:09.065Z,986.7
2019-05-12T00:09:10.338Z,986.6
2019-05-12T00:10:11.574Z,986.5
2019-05-12T00:11:13.019Z,986.7
2019-05-12T00:12:14.577Z,986.6
2019-05-12T00:13:15.865Z,986.6
2019-05-12T00:14:18.623Z,986.6
2019-05-12T00:15:20.469Z,986.6
2019-05-12T00:16:21.705Z,986.6
2019-05-12T00:17:22.979Z,986.6
2019-05-12T00:18:28.436Z,986.6
2019-05-12T00:19:29.911Z,986.6
2019-05-12T00:20:31.165Z,986.6
2019-05-12T00:21:32.416Z,986.7
2019-05-12T00:22:33.911Z,986.7
2019-05-12T00:23:35.199Z,986.6
2019-05-12T00:24:38.214Z,986.6
2019-05-12T00:25:39.682Z,986.7
2019-05-12T00:26:41.311Z,986.6
2019-05-12T00:27:44.526Z,986.7
2019-05-12T00:28:47.814Z,986.8
2019-05-12T00:29:49.523Z,986.9
2019-05-12T00:30:50.795Z,986.8
2019-05-12T00:31:52.019Z,986.5
2019-05-12T00:32:53.273Z,986.7
2019-05-12T00:33:54.558Z,986.6
2019-05-12T00:34:55.807Z,986.7
2019-05-12T00:35:59.829Z,986.9
2019-05-12T00:37:01.108Z,986.8
2019-05-12T00:38:02.382Z,986.9
2019-05-12T00:39:03.653Z,987
2019-05-12T00:40:04.922Z,986.9
2019-05-12T00:41:08.615Z,987
2019-05-12T00:42:10.011Z,987
2019-05-12T00:43:11.278Z,987
2019-05-12T00:44:12.598Z,987
2019-05-12T00:45:13.824Z,986.8
2019-05-12T00:46:15.081Z,987.1
2019-05-12T00:47:18.596Z,987
2019-05-12T00:48:20.095Z,987.1
2019-05-12T00:49:21.363Z,987.1
2019-05-12T00:50:22.641Z,987.2
2019-05-12T00:51:23.879Z,987.1
2019-05-12T00:52:25.233Z,987.2
2019-05-12T00:53:43.274Z,987
2019-05-12T00:54:44.732Z,987.1
2019-05-12T00:55:48.374Z,986.8
2019-05-12T00:56:49.615Z,987.2
2019-05-12T00:57:50.864Z,987.3
2019-05-12T00:58:52.110Z,987.2
2019-05-12T00:59:53.393Z,987.3
2019-05-12T01:00:54.657Z,987.2
2019-05-12T01:01:55.928Z,987.2
2019-05-12T01:02:58.964Z,987
2019-05-12T01:04:00.209Z,987.3
2019-05-12T01:05:01.494Z,987.3
2019-05-12T01:06:02.742Z,987.4
2019-05-12T01:07:03.968Z,987.3
2019-05-12T01:08:05.554Z,987.4
2019-05-12T01:09:09.446Z,987.4
2019-05-12T01:10:10.704Z,987.6
2019-05-12T01:11:11.954Z,987.6
2019-05-12T01:12:13.207Z,987.4
2019-05-12T01:13:14.440Z,987.6
2019-05-12T01:14:15.674Z,987.4
2019-05-12T01:15:18.517Z,987.5
2019-05-12T01:16:19.799Z,987.4
2019-05-12T01:17:21.028Z,987.5
2019-05-12T01:18:22.270Z,987.6
2019-05-12T01:19:23.520Z,987.6
2019-05-12T01:20:24.818Z,987.5
2019-05-12T01:21:26.059Z,987.6
2019-05-12T01:22:28.497Z,987.4
2019-05-12T01:23:29.772Z,987.5
2019-05-12T01:24:31.014Z,987.4
2019-05-12T01:25:32.301Z,987.5
2019-05-12T01:26:33.566Z,987.5
2019-05-12T01:27:34.804Z,987.6
2019-05-12T01:28:38.129Z,987.6
2019-05-12T01:29:39.584Z,987.7
2019-05-12T01:30:40.878Z,987.7
2019-05-12T01:31:42.138Z,987.7
2019-05-12T01:32:43.378Z,987.7
2019-05-12T01:33:44.618Z,987.6
2019-05-12T01:34:46.550Z,987.7
2019-05-12T01:35:49.925Z,987.6
2019-05-12T01:36:51.170Z,987.8
2019-05-12T01:37:52.434Z,987.8
2019-05-12T01:38:53.704Z,987.6
2019-05-12T01:39:54.966Z,987.7
2019-05-12T01:40:59.028Z,987.8
2019-05-12T01:42:00.277Z,987.9
2019-05-12T01:43:02.921Z,987.8
2019-05-12T01:44:04.166Z,987.7
2019-05-12T01:45:05.720Z,987.9
2019-05-12T01:46:08.788Z,988
2019-05-12T01:47:10.046Z,987.9
2019-05-12T01:48:11.290Z,987.9
2019-05-12T01:49:12.540Z,988
2019-05-12T01:50:13.827Z,988.1
2019-05-12T01:51:15.105Z,988.1
2019-05-12T01:52:18.558Z,988.2
2019-05-12T01:53:19.816Z,988.1
2019-05-12T01:54:21.066Z,988.1
2019-05-12T01:55:22.296Z,988.1
2019-05-12T01:56:23.606Z,988.2
2019-05-12T01:57:24.822Z,988.2
2019-05-12T01:58:28.560Z,988.2
2019-05-12T01:59:29.794Z,988.3
2019-05-12T02:00:31.350Z,988.4
2019-05-12T02:01:32.894Z,988.2
2019-05-12T02:02:34.357Z,988.3
2019-05-12T02:03:38.372Z,988.3
2019-05-12T02:04:39.612Z,988.3
2019-05-12T02:05:42.866Z,988.4
2019-05-12T02:06:44.158Z,988.5
2019-05-12T02:07:47.750Z,988.5
2019-05-12T02:08:49.186Z,988.5
2019-05-12T02:09:50.464Z,988.4
2019-05-12T02:10:52.039Z,988.5
2019-05-12T02:11:53.354Z,988.6
2019-05-12T02:12:54.595Z,988.5
2019-05-12T02:13:57.876Z,988.6
2019-05-12T02:14:59.679Z,988.6
2019-05-12T02:16:00.944Z,988.7
2019-05-12T02:17:02.266Z,988.5
2019-05-12T02:18:03.494Z,988.7
2019-05-12T02:19:04.747Z,988.6
2019-05-12T02:20:08.626Z,988.3
2019-05-12T02:21:09.902Z,988.7
2019-05-12T02:22:11.336Z,988.6
2019-05-12T02:23:12.788Z,988.7
2019-05-12T02:24:27.850Z,988.9
2019-05-12T02:25:31.178Z,988.8
2019-05-12T02:26:32.423Z,988.7
2019-05-12T02:27:33.926Z,988.8
2019-05-12T02:28:35.173Z,988.8
2019-05-12T02:29:39.096Z,988.7
2019-05-12T02:30:42.672Z,988.9
2019-05-12T02:31:43.953Z,988.9
2019-05-12T02:32:58.714Z,988.8
2019-05-12T02:34:06.507Z,988.9
2019-05-12T02:35:07.790Z,989
2019-05-12T02:36:09.059Z,989
2019-05-12T02:37:10.308Z,989
2019-05-12T02:38:14.280Z,988.6
2019-05-12T02:39:16.005Z,988.9
2019-05-12T02:40:17.242Z,989
2019-05-12T02:41:18.494Z,989.2
2019-05-12T02:42:19.732Z,989.2
2019-05-12T02:43:24.120Z,989.1
2019-05-12T02:44:25.769Z,989
2019-05-12T02:45:30.345Z,989
2019-05-12T02:46:35.417Z,989.2
2019-05-12T02:47:37.013Z,989.1
2019-05-12T02:48:38.370Z,989.1
2019-05-12T02:49:39.639Z,989.1
2019-05-12T02:50:40.901Z,989.3
2019-05-12T02:51:44.693Z,989.3
2019-05-12T02:52:46.723Z,989.3
2019-05-12T02:53:48.268Z,989.3
2019-05-12T02:55:00.632Z,989.2
2019-05-12T02:56:05.694Z,989.3
2019-05-12T02:57:06.954Z,989.3
2019-05-12T02:58:08.286Z,989.3
2019-05-12T02:59:09.566Z,989.2
2019-05-12T03:00:10.812Z,989.3
2019-05-12T03:01:15.213Z,989.2
2019-05-12T03:02:16.678Z,989.3
2019-05-12T03:03:19.179Z,989.3
2019-05-12T03:04:21.011Z,989.4
2019-05-12T03:05:25.364Z,989.4
2019-05-12T03:06:26.615Z,989.4
2019-05-12T03:07:27.870Z,989.4
2019-05-12T03:08:29.110Z,989.7
2019-05-12T03:09:30.384Z,989.6
2019-05-12T03:10:31.621Z,989.5
2019-05-12T03:11:38.297Z,989.5
2019-05-12T03:12:39.563Z,989.5
2019-05-12T03:13:40.815Z,989.5
2019-05-12T03:14:45.432Z,989.7
2019-05-12T03:15:46.668Z,989.5
2019-05-12T03:16:47.903Z,989.7
2019-05-12T03:17:49.153Z,989.8
2019-05-12T03:18:50.411Z,989.7
2019-05-12T03:19:51.760Z,989.7
2019-05-12T03:20:55.514Z,989.7
2019-05-12T03:21:56.758Z,989.6
2019-05-12T03:22:57.997Z,989.7
2019-05-12T03:23:59.250Z,989.7
2019-05-12T03:25:24.448Z,989.8
2019-05-12T03:26:26.267Z,989.9
2019-05-12T03:27:27.495Z,990
2019-05-12T03:28:28.746Z,989.8
2019-05-12T03:29:30.022Z,989.8
2019-05-12T03:30:36.794Z,989.7
2019-05-12T03:31:41.483Z,989.9
2019-05-12T03:32:48.435Z,989.9
2019-05-12T03:33:59.458Z,990
2019-05-12T03:35:01.251Z,989.9
2019-05-12T03:36:08.192Z,989.8
2019-05-12T03:37:10.479Z,989.9
2019-05-12T03:38:15.487Z,989.9
2019-05-12T03:39:16.751Z,989.8
2019-05-12T03:40:17.985Z,990.1
2019-05-12T03:41:19.263Z,989.9
2019-05-12T03:42:20.514Z,989.8
2019-05-12T03:43:24.962Z,989.9
2019-05-12T03:44:26.239Z,990
2019-05-12T03:45:27.475Z,990
2019-05-12T03:46:28.758Z,990
2019-05-12T03:47:30.039Z,990
2019-05-12T03:48:34.049Z,990.1
2019-05-12T03:49:36.169Z,990
2019-05-12T03:50:37.449Z,990.1
2019-05-12T03:51:38.763Z,990.1
2019-05-12T03:52:40.013Z,990
2019-05-12T03:53:41.282Z,990
2019-05-12T03:54:45.811Z,990
2019-05-12T03:55:48.298Z,990.2
2019-05-12T03:56:49.881Z,990.2
2019-05-12T03:57:51.127Z,990.3
2019-05-12T03:58:54.957Z,990.1
2019-05-12T03:59:56.187Z,990.3
2019-05-12T04:00:57.437Z,989.9
2019-05-12T04:01:58.708Z,990
2019-05-12T04:02:59.946Z,990
2019-05-12T04:04:01.192Z,990.3
2019-05-12T04:05:06.018Z,990.2
2019-05-12T04:06:07.297Z,990.1
2019-05-12T04:07:08.882Z,990.2
2019-05-12T04:08:10.294Z,990.3
2019-05-12T04:09:14.651Z,990.3
2019-05-12T04:10:16.693Z,990.3
2019-05-12T04:11:18.255Z,990.3
2019-05-12T04:12:19.531Z,990.3
2019-05-12T04:13:20.759Z,990.4
2019-05-12T04:14:24.405Z,990.4
2019-05-12T04:15:26.459Z,990.4
2019-05-12T04:16:27.714Z,990.3
2019-05-12T04:17:29.024Z,990.2
2019-05-12T04:18:30.276Z,990.3
2019-05-12T04:19:35.028Z,990.4
2019-05-12T04:20:37.089Z,990.4
2019-05-12T04:21:38.389Z,990.4
2019-05-12T04:22:39.707Z,990.6
2019-05-12T04:23:44.056Z,990.5
2019-05-12T04:24:45.733Z,990.5
2019-05-12T04:26:04.806Z,990.5
2019-05-12T04:27:08.679Z,990.6
2019-05-12T04:28:09.946Z,990.6
2019-05-12T04:29:11.193Z,990.8
2019-05-12T04:30:15.357Z,990.7
2019-05-12T04:31:16.621Z,990.7
2019-05-12T04:32:17.993Z,990.8
2019-05-12T04:33:19.282Z,990.7
2019-05-12T04:34:20.506Z,990.7
2019-05-12T04:35:24.760Z,990.7
2019-05-12T04:36:26.475Z,990.7
2019-05-12T04:37:27.755Z,990.9
2019-05-12T04:38:29.070Z,990.9
2019-05-12T04:39:30.315Z,990.6
2019-05-12T04:40:31.548Z,990.8
2019-05-12T04:41:35.927Z,990.9
2019-05-12T04:42:37.174Z,990.9
2019-05-12T04:43:38.448Z,991.1
2019-05-12T04:44:39.709Z,990.9
2019-05-12T04:45:40.948Z,990.9
2019-05-12T04:46:45.764Z,990.9
2019-05-12T04:47:47.039Z,991
2019-05-12T04:48:48.306Z,991.1
2019-05-12T04:49:49.548Z,991.2
2019-05-12T04:50:50.776Z,991.2
2019-05-12T04:51:55.164Z,990.9
2019-05-12T04:52:56.415Z,990.9
2019-05-12T04:53:57.964Z,991
2019-05-12T04:54:59.385Z,991.1
2019-05-12T04:56:19.088Z,991
2019-05-12T04:57:25.041Z,991
2019-05-12T04:58:26.754Z,991
2019-05-12T04:59:28.052Z,991.1
2019-05-12T05:00:29.270Z,991.2
2019-05-12T05:01:30.528Z,991.1
2019-05-12T05:02:35.084Z,991.1
2019-05-12T05:03:37.420Z,991.2
2019-05-12T05:04:38.688Z,991.3
2019-05-12T05:05:39.975Z,991.3
2019-05-12T05:06:45.650Z,991.3
2019-05-12T05:07:46.918Z,991.2
2019-05-12T05:08:48.190Z,991.3
2019-05-12T05:09:49.480Z,991.5
2019-05-12T05:10:50.738Z,991.4
2019-05-12T05:11:54.945Z,991.4
2019-05-12T05:12:59.332Z,991.2
2019-05-12T05:14:00.608Z,991.4
2019-05-12T05:15:01.962Z,991.5
2019-05-12T05:16:06.045Z,991.6
2019-05-12T05:17:07.336Z,991.5
2019-05-12T05:18:08.964Z,991.6
2019-05-12T05:19:10.256Z,991.6
2019-05-12T05:20:13.361Z,991.7
2019-05-12T05:21:14.778Z,991.6
2019-05-12T05:22:16.022Z,991.7
2019-05-12T05:23:17.252Z,991.7
2019-05-12T05:24:18.776Z,991.8
2019-05-12T05:25:20.350Z,991.8
2019-05-12T05:26:28.425Z,991.7
2019-05-12T05:27:29.768Z,991.6
2019-05-12T05:28:31.239Z,991.8
2019-05-12T05:29:37.100Z,991.9
2019-05-12T05:30:38.514Z,991.9
2019-05-12T05:31:39.770Z,991.8
2019-05-12T05:32:41.006Z,991.8
2019-05-12T05:33:44.188Z,991.9
2019-05-12T05:34:57.559Z,991.9
2019-05-12T05:35:59.025Z,991.9
2019-05-12T05:37:05.148Z,992
2019-05-12T05:38:10.699Z,991.9
2019-05-12T05:39:14.513Z,992.1
2019-05-12T05:40:19.706Z,992.1
2019-05-12T05:41:21.287Z,991.9
2019-05-12T05:42:32.599Z,992.1
2019-05-12T05:43:34.152Z,992.2
2019-05-12T05:44:38.587Z,992.2
2019-05-12T05:45:39.919Z,992.2
2019-05-12T05:46:50.222Z,992.2
2019-05-12T05:47:51.648Z,992.2
2019-05-12T05:48:54.888Z,992
2019-05-12T05:49:58.255Z,992.2
2019-05-12T05:51:05.523Z,992.2
2019-05-12T05:52:09.739Z,992.2
2019-05-12T05:53:19.790Z,992.3
2019-05-12T05:54:33.568Z,992.2
2019-05-12T05:55:36.447Z,992.2
2019-05-12T05:56:59.405Z,992.3
2019-05-12T05:58:10.464Z,992.2
2019-05-12T05:59:14.287Z,992.3
2019-05-12T06:00:23.677Z,992.2
2019-05-12T06:01:28.145Z,992.4
2019-05-12T06:02:40.092Z,992.3
2019-05-12T06:03:43.500Z,992.4
2019-05-12T06:04:53.267Z,992.3
2019-05-12T06:06:10.306Z,992.2
2019-05-12T06:07:15.079Z,992.2
2019-05-12T06:08:23.670Z,992.3
2019-05-12T06:09:30.124Z,992.2
2019-05-12T06:10:40.679Z,992.3
2019-05-12T06:11:44.407Z,992.4
2019-05-12T06:12:51.151Z,992.3
2019-05-12T06:13:54.253Z,992.3
2019-05-12T06:15:00.597Z,992.4
2019-05-12T06:16:04.164Z,992.4
2019-05-12T06:17:05.542Z,992.5
2019-05-12T06:18:06.802Z,992.4
2019-05-12T06:19:08.052Z,992.4
2019-05-12T06:20:13.425Z,992.4
2019-05-12T06:21:14.805Z,992.4
2019-05-12T06:22:18.949Z,992.4
2019-05-12T06:23:24.010Z,992.4
2019-05-12T06:24:25.449Z,992.5
2019-05-12T06:25:40.934Z,992.5
2019-05-12T06:27:00.714Z,992.5
2019-05-12T06:28:08.666Z,992.6
2019-05-12T06:29:20.056Z,992.5
2019-05-12T06:30:24.043Z,992.5
2019-05-12T06:31:33.174Z,992.5
2019-05-12T06:32:34.625Z,992.5
2019-05-12T06:33:38.105Z,992.6
2019-05-12T06:34:39.381Z,992.6
2019-05-12T06:35:45.256Z,992.6
2019-05-12T06:36:46.753Z,992.6
2019-05-12T06:38:01.636Z,992.6
2019-05-12T06:39:10.313Z,992.5
2019-05-12T06:40:14.698Z,992.5
2019-05-12T06:41:23.705Z,992.6
2019-05-12T06:42:27.166Z,992.5
2019-05-12T06:43:34.904Z,992.5
2019-05-12T06:44:38.213Z,992.5
2019-05-12T06:45:45.621Z,992.6
2019-05-12T06:46:47.095Z,992.7
2019-05-12T06:47:53.095Z,992.7
2019-05-12T06:48:55.192Z,992.7
2019-05-12T06:49:58.907Z,992.7
2019-05-12T06:51:00.165Z,992.7
2019-05-12T06:52:06.984Z,992.8
2019-05-12T06:53:08.463Z,992.7
2019-05-12T06:54:15.033Z,992.7
2019-05-12T06:55:17.927Z,992.7
2019-05-12T06:56:20.654Z,992.8
2019-05-12T06:57:28.933Z,992.8
2019-05-12T06:58:34.355Z,992.6
2019-05-12T06:59:35.867Z,992.9
2019-05-12T07:00:40.355Z,992.8
2019-05-12T07:01:41.607Z,992.9
2019-05-12T07:02:55.267Z,992.9
2019-05-12T07:04:06.300Z,993
2019-05-12T07:05:14.572Z,993
2019-05-12T07:06:20.652Z,993
2019-05-12T07:07:27.658Z,993
2019-05-12T07:08:38.200Z,992.9
2019-05-12T07:09:58.412Z,993
2019-05-12T07:11:06.815Z,993
2019-05-12T07:12:08.115Z,993
2019-05-12T07:13:14.583Z,993
2019-05-12T07:14:27.051Z,993
2019-05-12T07:15:35.450Z,993
2019-05-12T07:16:40.263Z,993.1
2019-05-12T07:17:49.549Z,993.1
2019-05-12T07:18:51.148Z,993.1
2019-05-12T07:19:58.481Z,993.1
2019-05-12T07:20:59.866Z,993.2
2019-05-12T07:22:03.398Z,993.3
2019-05-12T07:23:06.088Z,993.4
2019-05-12T07:24:13.886Z,993.4
2019-05-12T07:25:15.526Z,993.4
2019-05-12T07:26:20.137Z,993.4
2019-05-12T07:27:39.486Z,993.4
2019-05-12T07:28:50.275Z,993.5
2019-05-12T07:29:51.552Z,993.4
2019-05-12T07:30:55.197Z,993.5
2019-05-12T07:31:56.499Z,993.5
2019-05-12T07:33:04.135Z,993.6
2019-05-12T07:34:08.491Z,993.6
2019-05-12T07:35:09.761Z,993.6
2019-05-12T07:36:13.246Z,993.5
2019-05-12T07:37:15.987Z,993.6
2019-05-12T07:38:25.656Z,993.7
2019-05-12T07:39:27.180Z,993.7
2019-05-12T07:40:34.619Z,993.8
2019-05-12T07:41:36.170Z,993.7
2019-05-12T07:42:40.319Z,993.6
2019-05-12T07:43:43.783Z,993.7
2019-05-12T07:44:47.682Z,993.7
2019-05-12T07:46:02.154Z,993.7
2019-05-12T07:47:08.770Z,993.7
2019-05-12T07:48:14.667Z,993.7
2019-05-12T07:49:15.916Z,993.6
2019-05-12T07:50:24.681Z,993.7
2019-05-12T07:51:36.199Z,993.8
2019-05-12T07:52:39.691Z,993.7
2019-05-12T07:53:46.052Z,993.6
2019-05-12T07:54:48.220Z,993.6
2019-05-12T07:55:50.362Z,993.6
2019-05-12T07:56:53.788Z,993.7
2019-05-12T07:58:09.869Z,993.8
2019-05-12T07:59:14.606Z,993.8
2019-05-12T08:00:23.498Z,993.7
2019-05-12T08:01:27.192Z,993.7
2019-05-12T08:02:35.516Z,993.7
2019-05-12T08:03:36.987Z,993.8
2019-05-12T08:04:44.057Z,993.7
2019-05-12T08:05:45.404Z,993.8
2019-05-12T08:06:47.464Z,993.7
2019-05-12T08:07:53.436Z,993.8
2019-05-12T08:09:00.001Z,993.8
2019-05-12T08:10:01.330Z,993.8
2019-05-12T08:11:05.192Z,993.8
2019-05-12T08:12:21.058Z,993.8
2019-05-12T08:13:24.600Z,993.7
2019-05-12T08:14:30.179Z,993.7
2019-05-12T08:15:39.712Z,993.8
2019-05-12T08:16:50.309Z,993.8
2019-05-12T08:17:59.628Z,993.7
2019-05-12T08:19:06.601Z,993.7
2019-05-12T08:20:09.652Z,993.6
2019-05-12T08:21:11.031Z,993.7
2019-05-12T08:22:18.726Z,993.7
2019-05-12T08:23:20.371Z,993.7
2019-05-12T08:24:24.626Z,993.7
2019-05-12T08:25:31.372Z,993.7
2019-05-12T08:26:36.011Z,993.8
2019-05-12T08:27:45.010Z,993.8
2019-05-12T08:28:50.180Z,993.8
2019-05-12T08:30:02.944Z,993.8
2019-05-12T08:31:04.416Z,993.8
2019-05-12T08:32:15.819Z,993.8
2019-05-12T08:33:19.476Z,993.8
2019-05-12T08:34:20.755Z,993.8
2019-05-12T08:35:35.131Z,993.8
2019-05-12T08:36:37.188Z,993.9
2019-05-12T08:37:38.518Z,993.8
2019-05-12T08:38:39.931Z,993.9
2019-05-12T08:39:42.018Z,993.8
2019-05-12T08:40:54.111Z,993.8
2019-05-12T08:41:56.806Z,993.8
2019-05-12T08:43:05.499Z,993.8
2019-05-12T08:44:10.354Z,993.8
2019-05-12T08:45:24.888Z,993.7
2019-05-12T08:46:28.706Z,993.8
2019-05-12T08:47:38.848Z,993.8
2019-05-12T08:48:44.538Z,993.7
2019-05-12T08:49:55.904Z,993.8
2019-05-12T08:51:13.812Z,993.8
2019-05-12T08:52:15.873Z,993.7
2019-05-12T08:53:26.528Z,993.7
2019-05-12T08:54:27.871Z,993.8
2019-05-12T08:55:35.629Z,993.7
2019-05-12T08:56:37.165Z,993.8
2019-05-12T08:57:47.073Z,993.8
2019-05-12T08:58:54.334Z,993.8
2019-05-12T09:00:08.414Z,993.8
2019-05-12T09:01:10.170Z,993.8
2019-05-12T09:02:13.898Z,993.8
2019-05-12T09:03:20.268Z,993.9
2019-05-12T09:04:24.865Z,993.9
2019-05-12T09:05:38.354Z,993.8
2019-05-12T09:06:40.057Z,993.9
2019-05-12T09:07:47.307Z,993.9
2019-05-12T09:08:50.347Z,993.9
2019-05-12T09:09:54.346Z,994
2019-05-12T09:10:58.448Z,994
2019-05-12T09:11:59.726Z,994
2019-05-12T09:13:03.679Z,994
2019-05-12T09:14:06.861Z,994
2019-05-12T09:15:14.399Z,994
2019-05-12T09:16:15.711Z,994
2019-05-12T09:17:17.017Z,994
2019-05-12T09:18:19.810Z,994
2019-05-12T09:19:27.518Z,994.1
2019-05-12T09:20:39.388Z,994
2019-05-12T09:21:44.977Z,994.1
2019-05-12T09:22:46.253Z,994
2019-05-12T09:23:53.910Z,994.1
2019-05-12T09:25:04.165Z,994.1
2019-05-12T09:26:08.405Z,994.1
2019-05-12T09:27:09.965Z,994.1
2019-05-12T09:28:13.589Z,994.2
2019-05-12T09:29:18.366Z,994.1
2019-05-12T09:30:24.766Z,994.1
2019-05-12T09:31:30.211Z,993.9
2019-05-12T09:32:33.352Z,994.1
2019-05-12T09:33:35.684Z,994.1
2019-05-12T09:34:39.256Z,994.1
2019-05-12T09:35:45.249Z,994.1
2019-05-12T09:36:51.799Z,994.2
2019-05-12T09:37:55.284Z,994.2
2019-05-12T09:39:03.089Z,994.2
2019-05-12T09:40:08.378Z,994.1
2019-05-12T09:41:13.911Z,994.2
2019-05-12T09:42:25.387Z,994.1
2019-05-12T09:43:29.305Z,994.2
2019-05-12T09:44:31.275Z,994.2
2019-05-12T09:45:34.628Z,994.2
2019-05-12T09:46:41.317Z,994.2
2019-05-12T09:47:44.445Z,994.3
2019-05-12T09:48:54.886Z,994.3
2019-05-12T09:49:56.354Z,994.3
2019-05-12T09:51:02.596Z,994.3
2019-05-12T09:52:05.643Z,994.3
2019-05-12T09:53:14.138Z,994.3
2019-05-12T09:54:15.651Z,994.4
2019-05-12T09:55:16.985Z,994.4
2019-05-12T09:56:18.343Z,994.4
2019-05-12T09:57:21.150Z,994.4
2019-05-12T09:58:27.791Z,994.3
2019-05-12T09:59:29.412Z,994.3
2019-05-12T10:00:38.889Z,994.3
2019-05-12T10:01:43.779Z,994.4
2019-05-12T10:02:51.035Z,994.4
2019-05-12T10:03:55.105Z,994.3
2019-05-12T10:05:03.879Z,994.4
2019-05-12T10:06:11.246Z,994.3
2019-05-12T10:07:14.795Z,994.3
2019-05-12T10:08:16.069Z,994.4
2019-05-12T10:09:20.631Z,994.4
2019-05-12T10:10:53.506Z,994.4
2019-05-12T10:12:05.313Z,994.4
2019-05-12T10:13:06.812Z,994.4
2019-05-12T10:14:13.823Z,994.4
2019-05-12T10:15:24.600Z,994.5
2019-05-12T10:16:29.627Z,994.4
2019-05-12T10:17:31.309Z,994.4
2019-05-12T10:18:37.305Z,994.4
2019-05-12T10:19:38.608Z,994.4
2019-05-12T10:20:44.045Z,994.5
2019-05-12T10:21:55.028Z,994.5
2019-05-12T10:23:04.975Z,994.4
2019-05-12T10:24:09.529Z,994.5
2019-05-12T10:25:11.258Z,994.4
2019-05-12T10:26:15.493Z,994.4
2019-05-12T10:27:27.025Z,994.4
2019-05-12T10:28:32.940Z,994.4
2019-05-12T10:29:34.202Z,994.4
2019-05-12T10:30:35.455Z,994.5
2019-05-12T10:31:39.919Z,994.4
2019-05-12T10:32:43.469Z,994.4
2019-05-12T10:33:54.749Z,994.4
2019-05-12T10:34:57.850Z,994.2
2019-05-12T10:36:05.058Z,994.3
2019-05-12T10:37:08.806Z,994.4
2019-05-12T10:38:14.474Z,994.3
2019-05-12T10:39:19.834Z,994.4
2019-05-12T10:40:23.188Z,994.3
2019-05-12T10:41:24.792Z,994.4
2019-05-12T10:42:26.086Z,994.5
2019-05-12T10:43:30.413Z,994.5
2019-05-12T10:44:43.754Z,994.5
2019-05-12T10:45:45.245Z,994.5
2019-05-12T10:46:46.715Z,994.5
2019-05-12T10:47:48.034Z,994.4
2019-05-12T10:48:49.369Z,994.2
2019-05-12T10:49:54.521Z,994.4
2019-05-12T10:50:59.326Z,994.4
2019-05-12T10:52:04.500Z,994.4
2019-05-12T10:53:15.477Z,994.3
2019-05-12T10:54:17.287Z,994.4
2019-05-12T10:55:18.582Z,994.4
2019-05-12T10:56:19.919Z,994.4
2019-05-12T10:57:23.510Z,994.4
2019-05-12T10:58:25.848Z,994.4
2019-05-12T10:59:38.525Z,994.4
2019-05-12T11:00:39.935Z,994.4
2019-05-12T11:01:49.101Z,994.4
2019-05-12T11:02:50.716Z,994.4
2019-05-12T11:03:53.143Z,994.5
2019-05-12T11:04:54.906Z,994.4
2019-05-12T11:06:07.375Z,994.3
2019-05-12T11:07:09.053Z,994.3
2019-05-12T11:08:17.308Z,994.3
2019-05-12T11:09:27.208Z,994.3
2019-05-12T11:10:33.525Z,994.3
2019-05-12T11:11:46.732Z,994.3
2019-05-12T11:12:48.488Z,994.3
2019-05-12T11:14:03.903Z,994.3
2019-05-12T11:15:08.430Z,994.2
2019-05-12T11:16:13.694Z,994.3
2019-05-12T11:17:20.580Z,994.3
2019-05-12T11:18:31.112Z,994.3
2019-05-12T11:19:34.489Z,994.3
2019-05-12T11:20:35.731Z,994.3
2019-05-12T11:21:37.241Z,994.3
2019-05-12T11:22:39.774Z,994.3
2019-05-12T11:23:44.642Z,994.3
2019-05-12T11:24:45.898Z,994.3
2019-05-12T11:25:47.325Z,994.2
2019-05-12T11:26:48.847Z,994.2
2019-05-12T11:27:50.624Z,994.2
2019-05-12T11:28:53.940Z,994.3
2019-05-12T11:29:55.330Z,994.4
2019-05-12T11:30:56.794Z,994.3
2019-05-12T11:32:01.129Z,994.3
2019-05-12T11:33:06.918Z,994.3
2019-05-12T11:34:08.278Z,994.3
2019-05-12T11:35:09.996Z,994.4
2019-05-12T11:36:13.211Z,994.2
2019-05-12T11:37:14.858Z,994.4
2019-05-12T11:38:16.142Z,994.4
2019-05-12T11:39:20.124Z,994.4
2019-05-12T11:40:23.671Z,994.4
2019-05-12T11:41:29.186Z,994.3
2019-05-12T11:42:30.516Z,994.4
2019-05-12T11:43:37.031Z,994.4
2019-05-12T11:44:38.288Z,994.4
2019-05-12T11:45:39.566Z,994.4
2019-05-12T11:46:40.823Z,994.5
2019-05-12T11:47:45.422Z,994.4
2019-05-12T11:48:53.809Z,994.4
2019-05-12T11:50:09.865Z,994.4
2019-05-12T11:51:14.202Z,994.4
2019-05-12T11:52:20.773Z,994.5
2019-05-12T11:53:30.231Z,994.4
2019-05-12T11:54:34.154Z,994.5
2019-05-12T11:55:35.787Z,994.5
2019-05-12T11:56:46.319Z,994.4
2019-05-12T11:57:50.640Z,994.5
2019-05-12T11:58:56.134Z,994.4
2019-05-12T12:00:04.857Z,994.5
2019-05-12T12:01:09.064Z,994.4
2019-05-12T12:02:20.078Z,994.4
2019-05-12T12:03:24.059Z,994.4
2019-05-12T12:04:28.256Z,994.5
2019-05-12T12:05:29.750Z,994.4
2019-05-12T12:06:33.120Z,994.4
2019-05-12T12:07:48.106Z,994.5
2019-05-12T12:08:54.307Z,994.5
2019-05-12T12:10:00.704Z,994.5
2019-05-12T12:11:03.917Z,994.5
2019-05-12T12:12:08.027Z,994.5
2019-05-12T12:13:09.573Z,994.5
2019-05-12T12:14:11.353Z,994.4
2019-05-12T12:15:14.519Z,994.5
2019-05-12T12:16:16.810Z,994.5
2019-05-12T12:17:30.889Z,994.5
2019-05-12T12:18:34.545Z,994.5
2019-05-12T12:19:46.817Z,994.5
2019-05-12T12:21:03.768Z,994.4
2019-05-12T12:22:08.323Z,994.4
2019-05-12T12:23:13.906Z,994.5
2019-05-12T12:24:31.324Z,994.5
2019-05-12T12:25:35.836Z,994.6
2019-05-12T12:26:38.224Z,994.5
2019-05-12T12:27:39.512Z,994.6
2019-05-12T12:28:48.234Z,994.6
2019-05-12T12:29:57.490Z,994.6
2019-05-12T12:31:05.327Z,994.6
2019-05-12T12:32:16.784Z,994.7
2019-05-12T12:33:20.083Z,994.7
2019-05-12T12:34:30.561Z,994.7
2019-05-12T12:35:38.253Z,994.6
2019-05-12T12:36:39.532Z,994.6
2019-05-12T12:37:40.902Z,994.6
2019-05-12T12:38:43.959Z,994.6
2019-05-12T12:39:45.325Z,994.5
2019-05-12T12:40:54.596Z,994.6
2019-05-12T12:42:04.367Z,994.6
2019-05-12T12:43:06.133Z,994.6
2019-05-12T12:44:14.374Z,994.6
2019-05-12T12:45:15.623Z,994.7
2019-05-12T12:46:24.354Z,994.6
2019-05-12T12:47:25.713Z,994.5
2019-05-12T12:48:33.299Z,994.7
2019-05-12T12:49:34.903Z,994.7
2019-05-12T12:50:36.150Z,994.7
2019-05-12T12:51:37.461Z,994.6
2019-05-12T12:52:48.747Z,994.7
2019-05-12T12:53:54.052Z,994.7
2019-05-12T12:55:05.013Z,994.7
2019-05-12T12:56:08.773Z,994.8
2019-05-12T12:58:34.367Z,994.8
2019-05-12T12:59:35.802Z,994.8
2019-05-12T13:00:51.273Z,994.7
2019-05-12T13:02:05.675Z,994.7
2019-05-12T13:03:11.093Z,994.7
2019-05-12T13:04:14.008Z,994.7
2019-05-12T13:05:15.289Z,994.8
2019-05-12T13:06:18.122Z,994.7
2019-05-12T13:07:24.250Z,994.7
2019-05-12T13:08:25.559Z,994.7
2019-05-12T13:09:26.864Z,994.7
2019-05-12T13:10:28.209Z,994.7
2019-05-12T13:11:35.031Z,994.7
2019-05-12T13:12:36.586Z,994.8
2019-05-12T13:13:38.762Z,994.7
2019-05-12T13:14:44.193Z,994.7
2019-05-12T13:15:48.377Z,994.7
2019-05-12T13:16:56.212Z,994.8
2019-05-12T13:18:00.599Z,994.8
2019-05-12T13:19:15.181Z,994.8
2019-05-12T13:20:23.631Z,994.9
2019-05-12T13:21:25.153Z,994.8
2019-05-12T13:22:29.389Z,994.8
2019-05-12T13:23:41.052Z,994.8
2019-05-12T13:24:44.856Z,994.8
2019-05-12T13:25:54.640Z,994.8
2019-05-12T13:26:59.229Z,994.8
2019-05-12T13:28:10.119Z,994.8
2019-05-12T13:29:14.309Z,994.8
2019-05-12T13:30:21.544Z,994.7
2019-05-12T13:31:25.606Z,994.8
2019-05-12T13:32:37.865Z,994.8
2019-05-12T13:33:39.671Z,994.7
2019-05-12T13:34:43.709Z,994.7
2019-05-12T13:35:55.528Z,994.8
2019-05-12T13:36:57.332Z,994.8
2019-05-12T13:38:04.071Z,994.8
2019-05-12T13:39:11.282Z,994.7
2019-05-12T13:40:12.991Z,994.7
2019-05-12T13:41:20.015Z,994.7
2019-05-12T13:42:21.401Z,994.7
2019-05-12T13:43:24.536Z,994.6
2019-05-12T13:44:36.235Z,994.6
2019-05-12T13:45:40.370Z,994.6
2019-05-12T13:46:53.971Z,994.6
2019-05-12T13:47:56.040Z,994.6
2019-05-12T13:49:05.984Z,994.6
2019-05-12T13:50:26.176Z,994.6
2019-05-12T13:51:29.123Z,994.6
2019-05-12T13:52:33.227Z,994.6
2019-05-12T13:53:34.589Z,994.7
2019-05-12T13:54:35.883Z,994.7